Time;durP1;ratioP1;P1;durP2;ratioP2;P2;SDS_P1;SDS_P2;PMS_P1;PMS_P2;Temp;Humidity;BMP_temperature;BMP_pressure;BME280_temperature;BME280_humidity;BME280_pressure;Samples;Min_cycle;Max_cycle;Signal;HPM_P1;HPM_P2
2021/05/26 00:01:28;;;;;;;4.05;1.02;;;;;;;8.36;49.36;92915.00;4956153;29;20035;-74
2021/05/26 00:03:54;;;;;;;2.28;0.80;;;;;;;8.34;48.82;92911.88;4955927;29;20567;-75
2021/05/26 00:06:20;;;;;;;3.33;1.00;;;;;;;8.32;47.71;92913.94;4955981;29;20573;-74
2021/05/26 00:08:46;;;;;;;1.27;0.85;;;;;;;8.30;46.76;92905.59;4953580;28;20055;-74
2021/05/26 00:11:14;;;;;;;2.50;1.02;;;;;;;8.26;45.52;92894.13;4955850;29;20142;-74
2021/05/26 00:13:42;;;;;;;1.90;0.93;;;;;;;8.23;45.73;92899.88;4955820;29;20086;-74
2021/05/26 00:16:08;;;;;;;2.50;1.00;;;;;;;8.21;46.24;92904.56;4955778;29;20091;-74
2021/05/26 00:18:35;;;;;;;1.52;0.90;;;;;;;8.17;46.40;92899.06;4955639;29;20059;-74
2021/05/26 00:21:02;;;;;;;1.13;0.80;;;;;;;8.18;45.97;92898.03;4955772;29;20122;-74
2021/05/26 00:23:28;;;;;;;1.05;0.80;;;;;;;8.19;46.19;92893.59;4956053;29;20253;-74
2021/05/26 00:25:53;;;;;;;1.27;0.73;;;;;;;8.19;46.35;92894.38;4955889;29;20383;-74
2021/05/26 00:28:19;;;;;;;1.95;0.90;;;;;;;8.20;45.97;92895.19;4955520;29;20050;-74
2021/05/26 00:30:50;;;;;;;6.70;1.00;;;;;;;8.17;46.09;92895.69;4955537;29;20466;-75
2021/05/26 00:33:17;;;;;;;1.65;0.90;;;;;;;8.12;46.35;92899.84;4955445;29;20103;-75
2021/05/26 00:35:43;;;;;;;3.60;0.90;;;;;;;8.07;47.00;92889.44;4937865;29;20047;-75
2021/05/26 00:38:09;;;;;;;1.77;0.98;;;;;;;8.01;47.55;92893.06;4955423;29;20066;-74
2021/05/26 00:40:36;;;;;;;2.47;1.15;;;;;;;7.97;48.18;92892.03;4955390;29;20138;-74
2021/05/26 00:43:02;;;;;;;1.90;0.98;;;;;;;7.93;48.92;92891.00;4954643;29;20042;-74
2021/05/26 00:45:28;;;;;;;1.15;0.80;;;;;;;7.90;49.05;92889.69;4969587;28;20137;-74
2021/05/26 00:47:54;;;;;;;2.60;1.20;;;;;;;7.86;49.38;92888.63;4937811;29;20138;-75
2021/05/26 00:50:30;;;;;;;2.35;1.00;;;;;;;7.85;50.09;92886.28;4937702;29;20145;-74
2021/05/26 00:53:07;;;;;;;3.30;1.05;;;;;;;7.80;50.11;92886.28;4937878;29;20130;-74
2021/05/26 00:55:33;;;;;;;2.03;1.00;;;;;;;7.77;50.62;92878.97;4955287;29;20043;-74
2021/05/26 00:58:00;;;;;;;2.08;1.17;;;;;;;7.74;50.66;92877.66;4954923;29;20054;-74
2021/05/26 01:00:28;;;;;;;1.08;0.85;;;;;;;7.71;50.07;92878.97;4954978;29;20043;-74
2021/05/26 01:03:00;;;;;;;1.52;0.90;;;;;;;7.67;49.99;92877.91;4937628;29;20110;-74
2021/05/26 01:05:27;;;;;;;1.88;1.10;;;;;;;7.64;50.34;92886.25;4955020;29;20522;-74
2021/05/26 01:07:54;;;;;;;2.17;1.20;;;;;;;7.63;49.90;92876.88;4952524;28;20522;-74
2021/05/26 01:10:22;;;;;;;2.97;1.05;;;;;;;7.62;49.42;92882.34;4937582;29;20078;-75
2021/05/26 01:12:58;;;;;;;1.63;1.00;;;;;;;7.61;49.27;92878.97;4952151;29;20106;-75
2021/05/26 01:15:24;;;;;;;4.03;0.98;;;;;;;7.61;49.24;92883.38;4937466;29;20514;-74
2021/05/26 01:17:51;;;;;;;1.63;0.85;;;;;;;7.59;49.22;92875.00;4937186;29;20043;-75
2021/05/26 01:20:26;;;;;;;1.30;0.93;;;;;;;7.56;49.14;92880.75;4954684;29;20047;-75
2021/05/26 01:22:53;;;;;;;3.70;1.15;;;;;;;7.54;49.57;92883.59;4954433;29;20138;-75
2021/05/26 01:25:20;;;;;;;1.77;1.00;;;;;;;7.49;49.95;92873.97;4937067;29;20039;-74
2021/05/26 01:27:47;;;;;;;4.22;1.10;;;;;;;7.47;50.15;92885.69;4954287;29;20047;-75
2021/05/26 01:30:14;;;;;;;1.88;1.00;;;;;;;7.48;49.49;92882.06;4937247;29;20344;-75
2021/05/26 01:32:46;;;;;;;2.30;1.05;;;;;;;7.48;49.81;92882.81;4954387;29;20046;-75
2021/05/26 01:35:14;;;;;;;3.33;1.20;;;;;;;7.49;49.97;92883.59;4969263;28;20051;-75
2021/05/26 01:37:44;;;;;;;1.83;1.00;;;;;;;7.50;50.57;92872.16;4936986;29;20043;-74
2021/05/26 01:40:12;;;;;;;1.52;0.95;;;;;;;7.48;50.36;92879.44;4937053;29;20043;-75
2021/05/26 01:42:38;;;;;;;1.48;0.90;;;;;;;7.43;50.62;92871.59;4936628;29;20086;-75
2021/05/26 01:45:08;;;;;;;1.67;1.00;;;;;;;7.45;51.07;92874.72;4954078;29;20040;-75
2021/05/26 01:47:34;;;;;;;1.48;0.88;;;;;;;7.39;50.09;92871.34;4954171;29;20048;-75
2021/05/26 01:50:04;;;;;;;1.58;0.93;;;;;;;7.32;49.78;92870.00;4968932;28;20126;-74
2021/05/26 01:52:32;;;;;;;1.83;1.13;;;;;;;7.29;49.52;92873.91;4936636;29;20051;-74
2021/05/26 01:54:58;;;;;;;1.20;0.90;;;;;;;7.29;49.50;92872.09;4936822;29;20046;-75
2021/05/26 01:57:24;;;;;;;2.30;1.02;;;;;;;7.26;51.10;92869.22;4936657;29;20398;-75
2021/05/26 01:59:50;;;;;;;1.33;0.82;;;;;;;7.24;50.85;92871.28;4936546;28;20113;-75
2021/05/26 02:02:19;;;;;;;1.13;0.90;;;;;;;7.20;50.21;92871.00;4936224;29;20082;-75
2021/05/26 02:04:44;;;;;;;1.45;0.95;;;;;;;7.23;48.92;92873.13;4968604;28;20070;-75
2021/05/26 02:07:12;;;;;;;1.92;0.93;;;;;;;7.27;47.33;92873.38;4968690;28;20114;-75
2021/05/26 02:09:39;;;;;;;2.50;1.40;;;;;;;7.35;47.05;92879.94;4933940;29;20057;-75
2021/05/26 02:12:23;;;;;;;2.88;1.30;;;;;;;7.37;47.49;92877.84;4936548;29;20051;-75
2021/05/26 02:14:56;;;;;;;1.45;0.82;;;;;;;7.34;48.39;92878.34;4936918;29;20054;-75
2021/05/26 02:17:23;;;;;;;2.58;1.20;;;;;;;7.26;49.64;92883.00;4936390;29;20047;-75
2021/05/26 02:19:52;;;;;;;3.65;1.13;;;;;;;7.19;49.63;92882.47;4936228;29;20050;-75
2021/05/26 02:22:18;;;;;;;2.00;1.00;;;;;;;7.13;50.46;92883.47;4953377;29;20417;-74
2021/05/26 02:24:45;;;;;;;2.65;1.13;;;;;;;7.05;51.66;92884.00;4936161;29;20042;-75
2021/05/26 02:27:12;;;;;;;3.63;1.13;;;;;;;6.97;52.03;92892.28;4953714;29;20062;-75
2021/05/26 02:29:39;;;;;;;2.22;1.20;;;;;;;6.90;52.16;92882.09;4953312;29;20031;-75
2021/05/26 02:32:06;;;;;;;1.67;1.10;;;;;;;6.83;52.10;92882.31;4952817;29;20118;-75
2021/05/26 02:34:41;;;;;;;1.77;1.13;;;;;;;6.84;51.62;92885.69;4950803;29;20039;-75
2021/05/26 02:37:06;;;;;;;2.22;0.88;;;;;;;6.82;51.44;92872.16;4953022;29;20391;-75
2021/05/26 02:39:33;;;;;;;2.03;0.93;;;;;;;6.82;50.43;92875.56;4968176;28;20050;-75
2021/05/26 02:42:01;;;;;;;2.58;1.13;;;;;;;6.82;49.24;92872.97;4935783;29;20213;-75
2021/05/26 02:44:27;;;;;;;1.75;0.90;;;;;;;6.84;49.10;92877.88;4953179;29;20114;-75
2021/05/26 02:46:53;;;;;;;1.05;0.77;;;;;;;6.85;48.99;92869.84;4936021;29;20094;-75
2021/05/26 02:49:18;;;;;;;1.25;0.85;;;;;;;6.85;49.60;92869.84;4967881;28;20043;-75
2021/05/26 02:51:46;;;;;;;1.67;1.02;;;;;;;6.83;49.36;92869.31;4952985;29;20039;-74
2021/05/26 02:54:12;;;;;;;1.15;0.80;;;;;;;6.81;49.05;92871.38;4935901;29;20118;-75
2021/05/26 02:56:42;;;;;;;1.48;0.80;;;;;;;6.79;48.91;92868.25;4935804;29;20051;-74
2021/05/26 02:59:10;;;;;;;1.98;1.08;;;;;;;6.79;48.26;92863.03;4952873;29;20439;-74
2021/05/26 03:02:02;;;;;;;1.80;1.00;;;;;;;6.76;47.87;92867.97;4930194;29;20058;-75
2021/05/26 03:04:49;;;;;;;1.40;0.80;;;;;;;6.72;48.10;92865.09;4952480;29;20095;-75
2021/05/26 03:07:17;;;;;;;1.45;0.90;;;;;;;6.71;48.29;92870.53;4935567;29;20058;-75
2021/05/26 03:09:44;;;;;;;1.42;0.90;;;;;;;6.69;48.38;92876.00;4969854;28;20478;-74
2021/05/26 03:12:11;;;;;;;1.73;1.00;;;;;;;6.65;48.82;92867.91;4953877;28;20433;-75
2021/05/26 03:14:51;;;;;;;1.13;0.75;;;;;;;6.61;49.29;92874.66;4954804;28;20102;-74
2021/05/26 03:17:16;;;;;;;2.40;1.30;;;;;;;6.59;49.63;92878.53;4954555;28;20042;-75
2021/05/26 03:19:42;;;;;;;1.92;1.02;;;;;;;6.57;49.82;92876.19;4954519;28;20039;-74
2021/05/26 03:22:27;;;;;;;1.35;0.90;;;;;;;6.56;49.90;92871.25;4972146;28;20054;-74
2021/05/26 03:25:14;;;;;;;1.77;1.00;;;;;;;6.57;49.95;92870.97;4954743;28;20078;-74
2021/05/26 03:27:41;;;;;;;2.28;1.33;;;;;;;6.58;51.29;92872.56;4954668;28;20548;-74
2021/05/26 03:30:12;;;;;;;2.75;1.33;;;;;;;6.57;50.97;92880.59;4971948;28;20042;-74
2021/05/26 03:32:39;;;;;;;1.85;1.05;;;;;;;6.55;51.40;92877.47;4971946;28;20047;-75
2021/05/26 03:35:07;;;;;;;2.15;1.08;;;;;;;6.53;51.29;92876.94;4971899;28;20033;-75
2021/05/26 03:37:33;;;;;;;1.75;1.20;;;;;;;6.53;51.33;92879.53;4955162;28;20427;-74
2021/05/26 03:39:59;;;;;;;2.75;1.10;;;;;;;6.54;52.07;92881.91;4954425;28;20039;-74
2021/05/26 03:42:25;;;;;;;2.00;1.02;;;;;;;6.52;51.73;92885.78;4971525;28;20058;-74
2021/05/26 03:44:51;;;;;;;2.65;1.10;;;;;;;6.53;51.90;92884.75;4954315;28;20042;-74
2021/05/26 03:47:17;;;;;;;3.72;1.00;;;;;;;6.52;51.90;92891.75;4954379;28;20098;-74
2021/05/26 03:49:44;;;;;;;3.38;1.10;;;;;;;6.54;51.98;92891.53;4971520;28;20035;-74
2021/05/26 03:52:11;;;;;;;2.38;1.25;;;;;;;6.55;53.03;92893.88;4955364;28;20050;-74
2021/05/26 03:54:42;;;;;;;3.45;1.50;;;;;;;6.57;53.11;92891.00;4986207;28;20556;-74
2021/05/26 03:57:09;;;;;;;1.80;1.10;;;;;;;6.56;52.83;92886.84;4986640;28;20087;-75
2021/05/26 03:59:35;;;;;;;2.47;1.10;;;;;;;6.55;52.65;92888.69;4953915;28;20047;-74
2021/05/26 04:02:01;;;;;;;3.42;1.00;;;;;;;6.56;52.20;92895.44;4954261;28;20055;-75
2021/05/26 04:04:27;;;;;;;3.15;1.17;;;;;;;6.57;52.25;92897.00;4954207;28;20027;-75
2021/05/26 04:06:54;;;;;;;5.10;1.48;;;;;;;6.60;52.06;92898.34;4986705;28;20481;-75
2021/05/26 04:09:22;;;;;;;9.57;4.55;;;;;;;6.63;52.21;92897.81;4984274;28;20050;-75
2021/05/26 04:11:48;;;;;;;5.72;2.95;;;;;;;6.66;52.16;92902.50;4986345;28;20474;-75
2021/05/26 04:14:14;;;;;;;5.10;2.10;;;;;;;6.70;52.71;92897.59;4971906;28;20344;-75
2021/05/26 04:16:46;;;;;;;4.00;1.48;;;;;;;6.72;53.96;92903.34;4955177;28;20043;-75
2021/05/26 04:19:47;;;;;;;3.53;1.27;;;;;;;6.74;53.98;92907.25;4955593;28;20073;-75
2021/05/26 04:22:12;;;;;;;1.77;1.10;;;;;;;6.75;53.67;92902.81;4968798;28;20050;-76
2021/05/26 04:24:47;;;;;;;3.03;1.20;;;;;;;6.77;53.34;92904.13;4988597;28;20042;-76
2021/05/26 04:27:13;;;;;;;4.30;1.30;;;;;;;6.82;53.68;92903.38;4957604;28;20042;-75
2021/05/26 04:29:42;;;;;;;4.15;1.20;;;;;;;6.87;54.21;92903.44;4989777;28;20130;-76
2021/05/26 04:32:07;;;;;;;5.07;1.35;;;;;;;6.93;54.75;92904.22;4989901;28;20050;-75
2021/05/26 04:34:33;;;;;;;4.43;1.58;;;;;;;6.97;54.99;92906.06;4975189;28;20401;-76
2021/05/26 04:36:59;;;;;;;5.03;1.67;;;;;;;7.03;55.79;92912.09;4974828;28;20047;-75
2021/05/26 04:39:24;;;;;;;3.53;1.50;;;;;;;7.10;54.87;92910.03;4974665;28;20571;-75
2021/05/26 04:41:50;;;;;;;3.83;1.40;;;;;;;7.19;54.02;92903.31;4974742;28;20053;-76
2021/05/26 04:44:16;;;;;;;2.92;1.40;;;;;;;7.28;54.04;92904.38;4974927;28;20062;-75
2021/05/26 04:46:41;;;;;;;2.78;1.27;;;;;;;7.39;53.66;92907.03;4974645;28;20062;-75
2021/05/26 04:49:07;;;;;;;3.85;1.20;;;;;;;7.47;53.55;92904.69;4974336;28;20070;-75
2021/05/26 04:51:33;;;;;;;2.25;1.30;;;;;;;7.55;52.67;92900.81;4974756;28;20058;-75
2021/05/26 04:53:58;;;;;;;2.72;1.40;;;;;;;7.64;53.09;92898.50;4975550;28;20039;-76
2021/05/26 04:56:24;;;;;;;3.97;1.77;;;;;;;7.74;53.08;92901.09;4989497;28;20572;-76
2021/05/26 04:58:49;;;;;;;6.13;1.60;;;;;;;7.84;53.68;92893.31;4989304;28;20062;-76
2021/05/26 05:01:16;;;;;;;4.60;1.70;;;;;;;7.95;54.92;92894.13;4989270;28;20047;-77
2021/05/26 05:03:42;;;;;;;4.13;2.08;;;;;;;8.06;57.04;92900.91;4974529;28;20390;-75
2021/05/26 05:06:08;;;;;;;5.65;1.88;;;;;;;8.21;57.79;92901.94;4980529;28;20291;-75
2021/05/26 05:08:34;;;;;;;6.20;1.92;;;;;;;8.31;56.96;92904.56;4985484;28;20093;-76
2021/05/26 05:10:59;;;;;;;8.38;2.30;;;;;;;8.42;58.55;92900.13;4973963;28;20414;-76
2021/05/26 05:13:25;;;;;;;6.13;2.40;;;;;;;8.50;59.11;92900.41;4974406;28;20505;-75
2021/05/26 05:15:51;;;;;;;6.63;2.38;;;;;;;8.60;60.14;92899.63;4974304;28;20416;-76
2021/05/26 05:18:16;;;;;;;4.80;2.10;;;;;;;8.70;59.88;92906.66;4988998;28;20039;-76
2021/05/26 05:20:42;;;;;;;6.22;2.70;;;;;;;8.79;59.87;92905.06;4973972;28;20039;-76
2021/05/26 05:23:08;;;;;;;5.28;2.80;;;;;;;8.91;60.99;92908.16;4993324;28;20539;-77
2021/05/26 05:25:33;;;;;;;5.60;2.78;;;;;;;9.04;60.13;92906.03;4959629;28;20320;-77
2021/05/26 05:27:59;;;;;;;5.82;2.90;;;;;;;9.17;61.59;92913.31;4950934;28;20630;-77
2021/05/26 05:30:26;;;;;;;6.75;3.08;;;;;;;9.31;61.14;92913.53;4974893;28;20031;-76
2021/05/26 05:32:51;;;;;;;5.88;3.08;;;;;;;9.49;60.77;92912.16;4973805;28;20455;-76
2021/05/26 05:35:17;;;;;;;5.55;2.97;;;;;;;9.68;60.69;92910.50;4973120;28;20039;-76
2021/05/26 05:37:42;;;;;;;8.70;2.97;;;;;;;9.89;60.27;92915.63;4973676;28;20413;-76
2021/05/26 05:40:09;;;;;;;7.28;3.20;;;;;;;10.14;59.72;92912.81;4955015;28;20050;-76
2021/05/26 05:42:35;;;;;;;7.63;3.13;;;;;;;10.41;58.82;92911.63;4974913;28;20050;-76
2021/05/26 05:45:04;;;;;;;5.72;3.00;;;;;;;10.62;57.32;92909.59;4993953;28;20061;-76
2021/05/26 05:47:30;;;;;;;6.25;3.13;;;;;;;11.28;54.79;92910.78;4993777;28;20046;-76
2021/05/26 05:49:55;;;;;;;5.18;2.60;;;;;;;12.72;49.27;92912.22;4994073;28;20117;-77
2021/05/26 05:52:21;;;;;;;4.50;2.53;;;;;;;14.81;44.63;92910.88;4993932;28;20133;-76
2021/05/26 05:54:49;;;;;;;5.95;2.60;;;;;;;15.40;42.47;92903.56;4994101;28;20042;-77
2021/05/26 05:57:16;;;;;;;5.65;2.60;;;;;;;16.38;40.62;92912.91;4994209;28;20050;-76
2021/05/26 05:59:41;;;;;;;5.05;2.42;;;;;;;16.44;40.54;92911.69;4994426;28;20405;-77
2021/05/26 06:02:08;;;;;;;5.25;2.42;;;;;;;16.33;40.47;92909.66;4994483;28;20054;-77
2021/05/26 06:04:33;;;;;;;4.90;2.03;;;;;;;15.79;41.06;92915.19;4994698;28;20038;-77
2021/05/26 06:09:46;;;;;;;4.82;2.40;;;;;;;17.39;38.73;92906.53;4953793;29;20051;-77
2021/05/26 06:12:12;;;;;;;5.50;2.75;;;;;;;17.95;38.07;92907.19;4972744;28;20077;-78
2021/05/26 06:14:38;;;;;;;4.15;2.28;;;;;;;18.82;36.25;92901.22;4974619;28;20141;-77
2021/05/26 06:17:03;;;;;;;6.43;2.40;;;;;;;20.00;34.33;92906.91;4940670;28;20043;-77
2021/05/26 06:19:29;;;;;;;7.70;2.58;;;;;;;21.00;32.64;92911.59;4956650;28;20054;-77
2021/05/26 06:21:54;;;;;;;6.70;2.30;;;;;;;17.83;37.50;92909.75;4974024;28;20043;-78
2021/05/26 06:24:22;;;;;;;4.78;2.20;;;;;;;17.10;39.70;92915.94;4957391;28;20050;-77
2021/05/26 06:26:47;;;;;;;5.65;2.30;;;;;;;17.61;39.09;92914.22;4941539;28;20413;-78
2021/05/26 06:29:13;;;;;;;7.88;2.67;;;;;;;17.64;38.80;92910.91;4975328;28;20105;-78
2021/05/26 06:31:38;;;;;;;4.65;2.25;;;;;;;17.59;39.32;92913.75;4974698;28;20387;-77
2021/05/26 06:34:24;;;;;;;8.02;2.40;;;;;;;17.83;38.38;92912.41;4974851;28;20490;-77
2021/05/26 06:36:49;;;;;;;5.78;2.30;;;;;;;17.75;38.03;92907.91;4957535;28;20042;-77
2021/05/26 06:39:16;;;;;;;6.22;2.42;;;;;;;17.15;39.19;92907.06;4974800;28;20070;-77
2021/05/26 06:41:41;;;;;;;5.97;2.40;;;;;;;16.72;40.95;92908.69;4975129;28;20046;-77
2021/05/26 06:44:07;;;;;;;7.03;2.45;;;;;;;16.29;41.70;92909.50;4957455;28;20497;-77
2021/05/26 06:46:33;;;;;;;6.15;2.55;;;;;;;15.91;41.45;92909.31;4967905;28;20121;-77
2021/05/26 06:48:58;;;;;;;6.40;2.78;;;;;;;15.42;44.14;92914.56;4955328;29;20047;-77
2021/05/26 06:51:25;;;;;;;5.65;2.13;;;;;;;14.69;45.37;92916.72;4955341;29;20051;-77
2021/05/26 06:53:51;;;;;;;7.57;2.42;;;;;;;14.92;44.66;92917.47;4955148;29;20409;-77
2021/05/26 06:56:16;;;;;;;5.57;2.28;;;;;;;14.84;45.78;92915.53;4954859;29;20051;-77
2021/05/26 06:59:01;;;;;;;3.97;2.20;;;;;;;14.78;44.89;92922.81;4954937;29;20039;-77
2021/05/26 07:01:26;;;;;;;5.47;2.83;;;;;;;14.06;45.43;92923.66;4954578;29;20134;-77
2021/05/26 07:03:52;;;;;;;7.07;2.92;;;;;;;14.30;46.59;92923.41;4955449;29;20088;-77
2021/05/26 07:06:18;;;;;;;4.38;2.40;;;;;;;14.43;46.22;92921.75;4955270;29;20051;-77
2021/05/26 07:08:44;;;;;;;6.88;2.20;;;;;;;13.49;48.13;92930.06;4952456;28;20126;-77
2021/05/26 07:11:12;;;;;;;6.50;3.65;;;;;;;13.18;49.16;92926.41;4954200;29;20133;-77
2021/05/26 07:13:40;;;;;;;5.13;2.30;;;;;;;13.29;49.08;92927.81;4953559;29;20043;-77
2021/05/26 07:16:06;;;;;;;7.75;2.47;;;;;;;14.04;46.67;92931.06;4953510;29;20047;-76
2021/05/26 07:18:33;;;;;;;4.55;2.30;;;;;;;14.28;46.98;92930.81;4952179;29;20130;-76
2021/05/26 07:20:59;;;;;;;4.72;2.10;;;;;;;14.60;45.08;92921.94;4952717;29;20054;-76
2021/05/26 07:23:26;;;;;;;4.85;2.20;;;;;;;13.60;47.51;92922.75;4952585;29;20043;-75
2021/05/26 07:25:51;;;;;;;3.92;1.90;;;;;;;13.97;47.23;92930.69;4967307;28;20059;-76
2021/05/26 07:28:17;;;;;;;5.70;2.10;;;;;;;14.03;46.47;92924.25;4952741;28;20067;-76
2021/05/26 07:30:43;;;;;;;3.80;1.85;;;;;;;14.77;45.75;92923.88;4953074;29;20103;-76
2021/05/26 07:33:10;;;;;;;7.50;2.90;;;;;;;15.16;45.51;92912.63;4952793;29;20126;-76
2021/05/26 07:35:35;;;;;;;7.53;2.60;;;;;;;15.58;45.76;92915.75;4952699;29;20039;-76
2021/05/26 07:38:01;;;;;;;6.70;2.35;;;;;;;15.66;44.51;92913.41;4952593;29;20110;-76
2021/05/26 07:40:27;;;;;;;6.13;2.70;;;;;;;15.42;46.30;92914.56;4952709;29;20043;-76
2021/05/26 07:42:53;;;;;;;6.03;2.65;;;;;;;15.77;46.07;92915.50;4935404;29;20522;-76
2021/05/26 07:45:18;;;;;;;7.88;2.60;;;;;;;16.19;44.05;92909.81;4952570;29;20042;-76
2021/05/26 07:47:44;;;;;;;6.20;2.65;;;;;;;15.08;47.29;92905.44;4952620;29;20083;-76
2021/05/26 07:50:10;;;;;;;5.75;2.83;;;;;;;15.14;47.89;92908.75;4952465;29;20569;-76
2021/05/26 07:52:36;;;;;;;7.05;2.72;;;;;;;14.26;47.94;92917.94;4951164;29;20071;-76
2021/05/26 07:55:02;;;;;;;7.32;3.05;;;;;;;14.89;47.36;92908.31;4952453;29;20440;-76
2021/05/26 07:57:28;;;;;;;7.47;2.97;;;;;;;15.04;47.29;92909.78;4967238;28;20051;-76
2021/05/26 07:59:53;;;;;;;5.70;2.67;;;;;;;15.52;46.88;92911.69;4969602;28;20046;-75
2021/05/26 08:02:19;;;;;;;7.18;2.90;;;;;;;15.14;46.70;92914.78;4954443;29;20054;-76
2021/05/26 08:04:44;;;;;;;5.10;2.35;;;;;;;15.53;46.92;92909.81;4956616;29;20039;-75
2021/05/26 08:07:10;;;;;;;6.03;2.78;;;;;;;14.82;48.64;92910.59;4956315;29;20048;-76
2021/05/26 08:09:37;;;;;;;7.22;2.50;;;;;;;14.99;48.70;92908.06;4964073;28;20711;-76
2021/05/26 08:12:04;;;;;;;7.78;2.60;;;;;;;15.08;48.87;92904.66;4975371;28;20114;-75
2021/05/26 08:14:32;;;;;;;5.60;2.92;;;;;;;14.29;50.74;92912.06;4990920;28;20137;-75
2021/05/26 08:16:59;;;;;;;7.35;2.97;;;;;;;14.83;48.15;92914.78;4975558;28;20051;-75
2021/05/26 08:19:25;;;;;;;6.82;2.85;;;;;;;14.90;47.13;92911.72;4975400;28;20491;-75
2021/05/26 08:21:51;;;;;;;7.57;2.90;;;;;;;15.11;47.70;92898.81;4962418;28;20050;-76
2021/05/26 08:24:17;;;;;;;4.75;2.22;;;;;;;14.68;48.17;92910.69;4975165;28;20027;-75
2021/05/26 08:26:42;;;;;;;4.93;2.60;;;;;;;14.66;49.08;92901.50;4974518;28;20390;-75
2021/05/26 08:29:09;;;;;;;11.15;2.63;;;;;;;14.37;50.79;92894.78;4975477;28;20071;-75
2021/05/26 08:31:35;;;;;;;7.30;2.17;;;;;;;14.67;50.37;92895.16;4975626;28;20057;-78
2021/05/26 08:34:01;;;;;;;3.70;1.90;;;;;;;14.78;50.78;92902.50;4975393;28;20406;-75
2021/05/26 08:36:27;;;;;;;4.88;2.22;;;;;;;14.74;51.22;92895.50;4975075;28;20051;-75
2021/05/26 08:38:52;;;;;;;7.15;2.65;;;;;;;14.83;50.67;92898.19;4989882;28;20043;-75
2021/05/26 08:41:21;;;;;;;5.47;2.25;;;;;;;14.32;51.20;92898.31;4974887;28;20089;-75
2021/05/26 08:44:24;;;;;;;5.25;2.22;;;;;;;14.36;52.73;92893.22;4975111;28;20071;-77
2021/05/26 08:46:53;;;;;;;7.57;2.90;;;;;;;14.11;50.77;92891.94;4975081;28;20057;-77
2021/05/26 08:49:19;;;;;;;4.60;2.33;;;;;;;14.03;52.70;92890.81;4990383;28;20118;-75
2021/05/26 08:51:45;;;;;;;5.00;2.30;;;;;;;14.38;52.82;92889.19;4975254;28;20078;-77
2021/05/26 08:54:11;;;;;;;5.53;2.40;;;;;;;14.59;52.45;92888.78;4975366;28;20054;-77
2021/05/26 08:56:37;;;;;;;4.30;2.30;;;;;;;14.40;52.18;92890.78;4975814;28;20052;-77
2021/05/26 08:59:03;;;;;;;8.90;2.40;;;;;;;14.68;51.48;92886.97;4976637;28;20047;-76
2021/05/26 09:01:28;;;;;;;6.72;3.03;;;;;;;14.52;51.32;92877.81;4976457;28;20043;-77
2021/05/26 09:03:55;;;;;;;5.85;2.65;;;;;;;14.61;50.91;92889.22;4977170;28;20113;-77
2021/05/26 09:06:21;;;;;;;5.28;2.75;;;;;;;15.10;51.21;92881.41;4976209;28;20054;-77
2021/05/26 09:08:53;;;;;;;6.68;2.42;;;;;;;14.71;49.98;92880.31;4971295;28;20059;-77
2021/05/26 09:11:29;;;;;;;6.28;2.42;;;;;;;15.12;49.34;92874.00;4958425;28;20056;-77
2021/05/26 09:13:55;;;;;;;6.35;2.55;;;;;;;14.74;48.95;92875.19;4944135;29;20062;-77
2021/05/26 09:16:24;;;;;;;6.57;2.38;;;;;;;14.71;49.40;92875.81;4957436;29;20035;-77
2021/05/26 09:19:01;;;;;;;5.95;2.25;;;;;;;14.56;50.24;92887.50;4957465;29;20051;-77
2021/05/26 09:21:46;;;;;;;5.03;2.45;;;;;;;14.14;51.87;92878.19;4957094;29;20138;-77
2021/05/26 09:24:23;;;;;;;6.97;2.28;;;;;;;14.77;50.60;92874.59;4957094;29;20470;-77
2021/05/26 09:26:54;;;;;;;8.50;2.53;;;;;;;14.95;50.35;92869.41;4956298;29;20055;-77
2021/05/26 09:29:27;;;;;;;5.15;2.42;;;;;;;14.90;50.93;92877.44;4955832;29;20078;-76
2021/05/26 09:32:22;;;;;;;6.47;2.88;;;;;;;14.78;50.77;92876.16;4955401;29;20043;-77
2021/05/26 09:34:55;;;;;;;6.93;3.20;;;;;;;15.50;49.49;92871.63;4955481;29;20074;-77
2021/05/26 09:37:22;;;;;;;5.88;2.70;;;;;;;15.81;47.29;92876.06;4955601;29;20051;-77
2021/05/26 09:39:49;;;;;;;6.72;3.38;;;;;;;15.43;47.00;92865.25;4955017;28;20067;-77
2021/05/26 09:42:25;;;;;;;5.00;2.55;;;;;;;15.22;49.48;92872.94;4955085;29;20581;-77
2021/05/26 09:45:10;;;;;;;7.57;2.65;;;;;;;15.84;49.29;92870.16;4955342;29;20054;-77
2021/05/26 09:47:41;;;;;;;6.43;2.80;;;;;;;15.35;49.70;92867.53;4955028;29;20061;-76
2021/05/26 09:50:20;;;;;;;4.50;2.60;;;;;;;15.63;48.49;92867.31;4954729;29;20040;-77
2021/05/26 09:53:19;;;;;;;5.40;2.70;;;;;;;15.83;49.06;92868.63;4954886;29;20070;-77
2021/05/26 09:55:54;;;;;;;8.27;3.10;;;;;;;15.82;46.91;92867.06;4924510;29;20054;-77
2021/05/26 09:58:19;;;;;;;8.65;2.88;;;;;;;15.67;48.15;92862.19;4954942;29;20051;-77
2021/05/26 10:00:47;;;;;;;13.27;3.13;;;;;;;16.24;46.49;92865.53;4955025;29;20043;-77
2021/05/26 10:03:13;;;;;;;5.40;2.72;;;;;;;16.80;45.05;92863.00;4955139;29;20066;-77
2021/05/26 10:05:39;;;;;;;6.68;2.78;;;;;;;16.39;44.27;92864.28;4938080;29;20451;-77
2021/05/26 10:08:25;;;;;;;10.80;3.08;;;;;;;16.11;46.20;92865.69;4954719;28;20351;-77
2021/05/26 10:11:08;;;;;;;10.77;3.08;;;;;;;15.50;47.51;92861.06;4958276;28;20062;-77
2021/05/26 10:13:40;;;;;;;6.45;3.10;;;;;;;15.23;48.74;92862.09;4956243;28;20433;-76
2021/05/26 10:16:06;;;;;;;7.80;2.90;;;;;;;15.29;46.79;92852.16;4973448;28;20039;-77
2021/05/26 10:18:34;;;;;;;7.85;2.60;;;;;;;15.73;48.34;92853.06;4973623;28;20451;-77
2021/05/26 10:20:59;;;;;;;7.35;3.20;;;;;;;15.45;46.48;92850.66;4973279;28;20518;-77
2021/05/26 10:23:25;;;;;;;7.47;2.90;;;;;;;15.82;49.45;92859.91;4971977;28;20061;-77
2021/05/26 10:25:54;;;;;;;6.47;3.47;;;;;;;15.80;48.30;92858.66;4974395;28;20093;-77
2021/05/26 10:28:27;;;;;;;4.65;2.58;;;;;;;15.78;47.77;92864.28;4988252;28;20046;-76
2021/05/26 10:30:55;;;;;;;8.50;3.13;;;;;;;15.59;47.72;92855.81;4973502;28;20049;-77
2021/05/26 10:33:20;;;;;;;7.88;3.15;;;;;;;15.48;49.78;92849.28;4972943;28;20039;-77
2021/05/26 10:35:58;;;;;;;7.15;3.00;;;;;;;15.33;49.03;92858.38;4972977;28;20520;-77
2021/05/26 10:38:24;;;;;;;9.02;3.00;;;;;;;15.50;47.52;92855.03;4972718;28;20413;-77
2021/05/26 10:40:51;;;;;;;13.30;2.92;;;;;;;16.06;47.01;92855.28;4973065;28;20501;-77
2021/05/26 10:43:18;;;;;;;6.57;2.90;;;;;;;15.88;48.12;92857.13;4988051;28;20505;-76
2021/05/26 10:45:49;;;;;;;7.55;3.15;;;;;;;15.44;47.08;92848.34;4973155;28;20429;-77
2021/05/26 10:48:53;;;;;;;6.25;2.70;;;;;;;16.06;47.37;92848.13;4972774;28;20126;-76
2021/05/26 10:51:19;;;;;;;6.32;3.00;;;;;;;15.74;48.91;92850.13;4972725;28;20043;-77
2021/05/26 10:53:45;;;;;;;5.05;2.90;;;;;;;16.03;48.45;92849.53;4972946;28;20031;-77
2021/05/26 10:56:35;;;;;;;7.18;3.50;;;;;;;15.82;49.58;92845.94;4973071;28;20083;-77
2021/05/26 10:59:10;;;;;;;10.63;3.53;;;;;;;16.37;48.43;92849.81;4972733;28;20062;-77
2021/05/26 11:02:08;;;;;;;7.82;3.22;;;;;;;16.20;45.87;92846.09;4971384;28;20047;-77
2021/05/26 11:04:35;;;;;;;6.43;3.05;;;;;;;16.31;48.18;92836.00;4973220;28;20042;-77
2021/05/26 11:07:22;;;;;;;8.93;3.20;;;;;;;16.71;44.78;92835.78;4955210;28;20425;-76
2021/05/26 11:10:01;;;;;;;9.93;3.28;;;;;;;16.31;44.06;92814.88;4970593;28;20429;-77
2021/05/26 11:12:28;;;;;;;8.18;2.97;;;;;;;16.70;44.36;92828.94;4987722;28;20043;-76
2021/05/26 11:14:54;;;;;;;8.05;3.15;;;;;;;16.15;42.06;92814.56;4972686;28;20057;-77
2021/05/26 11:17:26;;;;;;;6.50;3.00;;;;;;;16.59;45.58;92823.19;4972445;28;20053;-77
2021/05/26 11:20:12;;;;;;;5.60;2.63;;;;;;;17.06;46.93;92820.59;4972531;28;20593;-77
2021/05/26 11:22:38;;;;;;;8.27;3.22;;;;;;;16.64;45.24;92827.56;4987201;28;20054;-77
2021/05/26 11:25:07;;;;;;;5.07;2.72;;;;;;;16.83;47.74;92808.72;4955189;28;20193;-76
2021/05/26 11:27:33;;;;;;;7.10;2.80;;;;;;;16.13;47.26;92823.91;4972479;28;20058;-77
2021/05/26 11:30:03;;;;;;;8.07;3.03;;;;;;;16.29;45.94;92819.69;4972282;28;20050;-77
2021/05/26 11:32:29;;;;;;;7.57;3.40;;;;;;;16.94;44.29;92812.56;4972398;28;20051;-77
2021/05/26 11:34:56;;;;;;;6.88;2.90;;;;;;;16.49;47.54;92812.19;4957879;28;20386;-77
2021/05/26 11:37:30;;;;;;;12.65;3.58;;;;;;;16.23;49.45;92810.38;4959018;28;20054;-77
2021/05/26 11:39:58;;;;;;;6.45;3.10;;;;;;;16.59;42.91;92817.13;4959042;28;20477;-77
2021/05/26 11:42:27;;;;;;;6.72;2.80;;;;;;;16.60;42.05;92814.19;4958881;28;20043;-77
2021/05/26 11:44:55;;;;;;;8.77;3.00;;;;;;;16.62;41.46;92806.72;4976483;28;20101;-77
2021/05/26 11:47:45;;;;;;;6.90;3.35;;;;;;;16.10;43.18;92813.94;4959314;28;20405;-77